Time;durP1;ratioP1;P1;durP2;ratioP2;P2;SDS_P1;SDS_P2;PMS_P1;PMS_P2;Temp;Humidity;BMP_temperature;BMP_pressure;BME280_temperature;BME280_humidity;BME280_pressure;Samples;Min_cycle;Max_cycle;Signal;HPM_P1;HPM_P2
2024/04/04 00:02:25;;;;;;;9.77;1.42;;;11.90;99.90;;;;;;5053780;28;20020;-74
2024/04/04 00:05:01;;;;;;;6.38;1.20;;;12.00;99.90;;;;;;5077467;28;20040;-75
2024/04/04 00:07:27;;;;;;;5.25;1.25;;;11.90;99.90;;;;;;5058891;28;20034;-75
2024/04/04 00:09:53;;;;;;;4.20;1.30;;;11.90;99.90;;;;;;5095848;28;20548;-75
2024/04/04 00:12:20;;;;;;;9.68;1.80;;;11.70;99.90;;;;;;5036110;28;20484;-75
2024/04/04 00:14:47;;;;;;;12.27;1.65;;;11.50;99.90;;;;;;5080861;28;20053;-74
2024/04/04 00:17:12;;;;;;;5.65;1.27;;;11.40;99.90;;;;;;5093077;28;20028;-73
2024/04/04 00:19:38;;;;;;;8.52;1.42;;;11.40;99.90;;;;;;5077550;28;20504;-74
2024/04/04 00:22:04;;;;;;;7.32;1.45;;;11.50;99.90;;;;;;5061664;28;20060;-74
2024/04/04 00:24:30;;;;;;;5.95;1.42;;;11.60;99.90;;;;;;5090117;28;20049;-74
2024/04/04 00:26:56;;;;;;;6.43;1.20;;;11.60;99.90;;;;;;5056563;28;20020;-74
2024/04/04 00:29:21;;;;;;;7.60;1.67;;;11.60;99.90;;;;;;5060359;28;20036;-74
2024/04/04 00:31:47;;;;;;;5.90;0.90;;;11.70;99.90;;;;;;5060845;28;20456;-73
2024/04/04 00:34:13;;;;;;;3.10;1.05;;;11.70;99.90;;;;;;5058598;28;20029;-74
2024/04/04 00:36:39;;;;;;;4.28;1.15;;;11.60;99.90;;;;;;5054867;28;20526;-74
2024/04/04 00:39:04;;;;;;;7.10;1.00;;;11.50;99.90;;;;;;5079319;28;20050;-75
2024/04/04 00:41:30;;;;;;;9.00;1.23;;;11.60;99.90;;;;;;5046923;28;20096;-75
2024/04/04 00:43:56;;;;;;;10.00;1.50;;;11.50;99.90;;;;;;5061770;28;20036;-76
2024/04/04 00:46:23;;;;;;;6.60;1.98;;;11.60;99.90;;;;;;5060262;28;20544;-75
2024/04/04 00:48:50;;;;;;;6.55;1.40;;;11.40;99.90;;;;;;5055500;28;20086;-76
2024/04/04 00:51:15;;;;;;;5.50;1.63;;;11.30;99.90;;;;;;5056654;28;20401;-76
2024/04/04 00:53:41;;;;;;;8.15;1.83;;;11.30;99.90;;;;;;5041738;28;20024;-76
2024/04/04 00:56:07;;;;;;;8.18;1.40;;;11.40;99.90;;;;;;5075617;28;20063;-75
2024/04/04 00:58:35;;;;;;;6.70;1.38;;;11.30;99.90;;;;;;5056999;28;20025;-74
2024/04/04 01:01:01;;;;;;;10.52;1.95;;;11.40;99.90;;;;;;5094278;28;20043;-77
2024/04/04 01:03:27;;;;;;;7.05;1.10;;;11.30;99.90;;;;;;5049120;28;20035;-75
2024/04/04 01:05:53;;;;;;;8.75;1.35;;;11.30;99.90;;;;;;5097323;28;20393;-76
2024/04/04 01:08:20;;;;;;;7.72;1.67;;;11.20;99.90;;;;;;5058968;28;20031;-77
2024/04/04 01:10:45;;;;;;;5.30;1.52;;;11.20;99.90;;;;;;5063097;28;20062;-75
2024/04/04 01:13:11;;;;;;;6.40;1.30;;;11.20;99.90;;;;;;5061084;28;20020;-76
2024/04/04 01:15:37;;;;;;;4.60;1.52;;;11.20;99.90;;;;;;5040155;28;20119;-75
2024/04/04 01:18:03;;;;;;;11.07;1.65;;;11.40;99.90;;;;;;5058454;28;20033;-74
2024/04/04 01:20:28;;;;;;;7.72;1.45;;;11.40;99.90;;;;;;5069745;28;20036;-76
2024/04/04 01:22:54;;;;;;;11.95;1.83;;;11.40;99.90;;;;;;5073483;28;20056;-74
2024/04/04 01:25:20;;;;;;;6.85;1.20;;;11.40;99.90;;;;;;5070631;28;20119;-74
2024/04/04 01:27:49;;;;;;;5.82;0.80;;;11.40;99.90;;;;;;5072235;28;20477;-74
2024/04/04 01:30:16;;;;;;;5.75;1.45;;;11.50;99.90;;;;;;5036142;28;20028;-73
2024/04/04 01:32:42;;;;;;;10.27;1.42;;;11.40;99.90;;;;;;5077874;28;20131;-74
2024/04/04 01:35:08;;;;;;;8.18;1.52;;;11.40;99.90;;;;;;5086484;28;20037;-74
2024/04/04 01:37:34;;;;;;;10.18;1.83;;;11.40;99.90;;;;;;5089868;28;20051;-74
2024/04/04 01:39:59;;;;;;;8.55;1.15;;;11.40;99.90;;;;;;5067505;28;20089;-75
2024/04/04 01:42:25;;;;;;;7.47;1.70;;;11.30;99.90;;;;;;5040128;28;20028;-74
2024/04/04 01:44:51;;;;;;;5.40;1.65;;;11.40;99.90;;;;;;5046131;28;20025;-74
2024/04/04 01:47:16;;;;;;;15.20;2.20;;;11.40;99.90;;;;;;5094500;28;20036;-75
2024/04/04 01:49:42;;;;;;;9.48;2.00;;;11.40;99.90;;;;;;5073019;28;20137;-74
2024/04/04 01:52:08;;;;;;;6.68;1.58;;;11.40;99.90;;;;;;5049397;28;20062;-73
2024/04/04 01:54:34;;;;;;;9.82;1.85;;;11.40;99.90;;;;;;5055284;28;20145;-73
2024/04/04 01:56:59;;;;;;;11.13;2.00;;;11.40;99.90;;;;;;5071263;28;20462;-74
2024/04/04 01:59:25;;;;;;;8.77;2.35;;;11.40;99.90;;;;;;5056430;28;20040;-73
2024/04/04 02:01:51;;;;;;;9.55;2.05;;;11.50;99.90;;;;;;5073270;28;20029;-73
2024/04/04 02:04:16;;;;;;;12.43;2.22;;;11.40;99.90;;;;;;5071305;28;20438;-73
2024/04/04 02:06:43;;;;;;;18.88;2.25;;;11.40;99.90;;;;;;5068350;28;20033;-74
2024/04/04 02:09:09;;;;;;;13.48;2.60;;;11.50;99.90;;;;;;5068969;28;20032;-74
2024/04/04 02:11:35;;;;;;;13.45;2.40;;;11.60;99.90;;;;;;5071207;28;20502;-73
2024/04/04 02:14:01;;;;;;;10.35;1.85;;;11.50;99.90;;;;;;5054684;28;20116;-72
2024/04/04 02:16:29;;;;;;;16.80;2.55;;;11.50;99.90;;;;;;5071507;28;20378;-72
2024/04/04 02:18:55;;;;;;;11.93;2.60;;;11.50;99.90;;;;;;5068095;28;20419;-73
2024/04/04 02:21:21;;;;;;;12.27;2.20;;;11.50;99.90;;;;;;5071302;28;20170;-71
2024/04/04 02:23:47;;;;;;;16.67;2.85;;;11.50;99.90;;;;;;5071499;28;20048;-72
2024/04/04 02:26:13;;;;;;;16.52;2.50;;;11.50;99.90;;;;;;5069806;28;20039;-72
2024/04/04 02:28:39;;;;;;;15.02;2.80;;;11.50;99.90;;;;;;5072023;28;20032;-71
2024/04/04 02:31:05;;;;;;;18.95;2.45;;;11.60;99.90;;;;;;5055527;28;20035;-72
2024/04/04 02:33:31;;;;;;;17.98;3.05;;;11.60;99.90;;;;;;5057838;28;20082;-72
2024/04/04 02:35:58;;;;;;;16.33;3.33;;;11.60;99.90;;;;;;5056804;28;20041;-72
2024/04/04 02:38:24;;;;;;;15.00;2.42;;;11.70;99.90;;;;;;5073111;28;20028;-73
2024/04/04 02:40:50;;;;;;;24.83;3.55;;;11.70;99.90;;;;;;5074172;28;20054;-72
2024/04/04 02:43:17;;;;;;;14.45;2.28;;;11.70;99.90;;;;;;5090670;28;20033;-72
2024/04/04 02:45:46;;;;;;;18.27;2.90;;;11.80;99.90;;;;;;5055431;28;20029;-72
2024/04/04 02:48:12;;;;;;;18.30;2.28;;;11.90;99.90;;;;;;5071470;28;20032;-73
2024/04/04 02:50:38;;;;;;;17.88;2.78;;;12.00;99.90;;;;;;5071993;28;20048;-72
2024/04/04 02:53:04;;;;;;;16.02;3.03;;;12.10;99.90;;;;;;5092693;28;20365;-74
2024/04/04 02:55:31;;;;;;;22.90;3.42;;;12.10;99.90;;;;;;5084395;28;20065;-72
2024/04/04 02:57:57;;;;;;;18.60;3.13;;;12.10;99.90;;;;;;5077696;28;20063;-72
2024/04/04 03:00:22;;;;;;;22.77;3.60;;;12.20;99.90;;;;;;5060075;28;20387;-72
2024/04/04 03:02:48;;;;;;;13.88;2.92;;;12.10;99.90;;;;;;5026359;28;20071;-74
2024/04/04 03:05:14;;;;;;;21.15;2.67;;;12.10;99.90;;;;;;5070016;28;20132;-75
2024/04/04 03:07:39;;;;;;;14.52;3.25;;;12.10;99.90;;;;;;5039350;28;20074;-78
2024/04/04 03:10:06;;;;;;;22.35;3.55;;;12.10;99.90;;;;;;5081101;28;20109;-75
2024/04/04 03:12:31;;;;;;;23.08;3.85;;;12.10;99.90;;;;;;5088633;28;20048;-75
2024/04/04 03:14:57;;;;;;;15.77;3.08;;;12.10;99.90;;;;;;5056902;28;20031;-77
2024/04/04 03:17:23;;;;;;;25.60;3.50;;;12.10;99.90;;;;;;5070563;28;20048;-74
2024/04/04 03:19:48;;;;;;;16.88;2.78;;;12.20;99.90;;;;;;5086394;28;20036;-73
2024/04/04 03:22:14;;;;;;;26.35;4.15;;;12.10;99.90;;;;;;5059186;28;20041;-74
2024/04/04 03:24:40;;;;;;;21.52;3.42;;;12.20;99.90;;;;;;5069703;28;20053;-74
2024/04/04 03:27:06;;;;;;;18.40;3.70;;;12.20;99.90;;;;;;5055193;28;20028;-75
2024/04/04 03:29:31;;;;;;;16.67;3.10;;;12.20;99.90;;;;;;5074895;28;20398;-73
2024/04/04 03:31:57;;;;;;;20.75;3.50;;;12.20;99.90;;;;;;5070258;28;20016;-74
2024/04/04 03:34:23;;;;;;;25.40;3.50;;;12.20;99.90;;;;;;5074628;28;20025;-75
2024/04/04 03:36:49;;;;;;;30.27;4.25;;;12.30;99.90;;;;;;5041886;28;20044;-76
2024/04/04 03:39:15;;;;;;;30.40;3.30;;;12.30;99.90;;;;;;5062858;28;20417;-74
2024/04/04 03:41:41;;;;;;;25.60;4.20;;;12.20;99.90;;;;;;5059820;28;20032;-77
2024/04/04 03:44:08;;;;;;;20.95;3.47;;;12.20;99.90;;;;;;5033157;28;20025;-75
2024/04/04 03:46:33;;;;;;;18.17;3.42;;;12.20;99.90;;;;;;5068843;28;20150;-75
2024/04/04 03:48:59;;;;;;;24.50;4.25;;;12.20;99.90;;;;;;5057387;28;20111;-76
2024/04/04 03:51:26;;;;;;;25.80;3.60;;;12.20;99.90;;;;;;5074127;28;20035;-75
2024/04/04 03:53:52;;;;;;;26.15;3.40;;;12.20;99.90;;;;;;5075589;28;20021;-76
2024/04/04 03:56:18;;;;;;;19.33;3.40;;;12.30;99.90;;;;;;5074030;28;20051;-74
2024/04/04 03:58:44;;;;;;;22.65;4.38;;;12.20;99.90;;;;;;5090841;28;20029;-74
2024/04/04 04:01:09;;;;;;;17.02;3.42;;;12.20;99.90;;;;;;5041854;28;20410;-75
2024/04/04 04:03:35;;;;;;;16.00;3.28;;;12.20;99.90;;;;;;5054065;28;20020;-74
2024/04/04 04:06:01;;;;;;;23.73;3.50;;;12.20;99.90;;;;;;5072014;28;20024;-73
2024/04/04 04:08:27;;;;;;;22.42;4.32;;;12.30;99.90;;;;;;5054505;28;20021;-75
2024/04/04 04:10:52;;;;;;;26.20;2.80;;;12.40;99.90;;;;;;5038871;28;20133;-75
2024/04/04 04:13:18;;;;;;;22.15;3.50;;;12.40;99.90;;;;;;5075790;28;20482;-73
2024/04/04 04:15:57;;;;;;;19.35;3.50;;;12.20;99.90;;;;;;5056930;28;20128;-72
2024/04/04 04:18:22;;;;;;;20.45;2.90;;;12.10;99.90;;;;;;5066002;28;20021;-74
2024/04/04 04:23:32;;;;;;;22.38;3.65;;;12.10;99.90;;;;;;5079868;28;20086;-74
2024/04/04 04:25:58;;;;;;;20.65;3.13;;;12.10;99.90;;;;;;5048826;28;20052;-74
2024/04/04 04:28:23;;;;;;;26.80;3.75;;;12.10;99.90;;;;;;5047468;28;20032;-75
2024/04/04 04:30:51;;;;;;;16.63;3.42;;;12.10;99.90;;;;;;5038289;28;20457;-75
2024/04/04 04:33:17;;;;;;;9.60;2.60;;;12.20;99.90;;;;;;5086535;28;20062;-75
2024/04/04 04:35:43;;;;;;;14.40;2.53;;;12.20;99.90;;;;;;5041146;28;20036;-75
2024/04/04 04:38:08;;;;;;;19.45;3.30;;;12.20;99.90;;;;;;5040191;28;20032;-75
2024/04/04 04:40:34;;;;;;;20.48;2.65;;;12.20;99.90;;;;;;5042812;28;20085;-75
2024/04/04 04:43:00;;;;;;;16.52;2.08;;;12.20;99.90;;;;;;5076599;28;20391;-75
2024/04/04 04:45:26;;;;;;;11.40;2.35;;;12.20;99.90;;;;;;5041954;28;20462;-75
2024/04/04 04:47:51;;;;;;;11.48;2.75;;;12.10;99.90;;;;;;5032216;28;20377;-75
2024/04/04 04:50:17;;;;;;;14.02;3.00;;;12.20;99.90;;;;;;5080653;28;20036;-76
2024/04/04 04:52:43;;;;;;;16.02;2.33;;;12.20;99.90;;;;;;5060945;28;20066;-75
2024/04/04 04:55:09;;;;;;;12.32;1.80;;;12.20;99.90;;;;;;5074123;28;20358;-76
2024/04/04 04:57:35;;;;;;;16.20;2.45;;;12.20;99.90;;;;;;5059517;28;20024;-74
2024/04/04 05:00:01;;;;;;;11.98;2.10;;;12.20;99.90;;;;;;5076462;28;20149;-75
2024/04/04 05:02:26;;;;;;;13.45;3.00;;;12.20;99.90;;;;;;5059030;28;20028;-75
2024/04/04 05:04:52;;;;;;;11.38;2.55;;;12.30;99.90;;;;;;5075927;28;20032;-74
2024/04/04 05:07:18;;;;;;;12.65;2.08;;;12.40;99.90;;;;;;5090833;28;20361;-75
2024/04/04 05:09:44;;;;;;;16.02;3.10;;;12.40;99.90;;;;;;5077384;28;20111;-77
2024/04/04 05:12:09;;;;;;;23.30;3.38;;;12.50;99.90;;;;;;5060188;28;20028;-77
2024/04/04 05:14:35;;;;;;;17.85;2.60;;;12.40;99.90;;;;;;5057765;28;20396;-77
2024/04/04 05:17:01;;;;;;;13.35;2.47;;;12.50;99.90;;;;;;5055072;28;20032;-77
2024/04/04 05:19:27;;;;;;;13.38;2.33;;;12.50;99.90;;;;;;5075483;28;20028;-75
2024/04/04 05:21:53;;;;;;;20.00;3.63;;;12.50;99.90;;;;;;5074837;28;20069;-74
2024/04/04 05:24:18;;;;;;;23.05;3.22;;;12.70;99.90;;;;;;5071460;28;20344;-76
2024/04/04 05:26:44;;;;;;;15.25;2.72;;;12.70;99.90;;;;;;5067104;28;20793;-76
2024/04/04 05:29:12;;;;;;;15.25;2.92;;;12.70;99.90;;;;;;5050225;28;20044;-74
2024/04/04 05:31:37;;;;;;;16.90;3.47;;;12.80;99.90;;;;;;5055698;28;20032;-76
2024/04/04 05:34:03;;;;;;;17.05;2.60;;;12.80;99.90;;;;;;5070585;28;20032;-78
2024/04/04 05:36:29;;;;;;;13.60;2.70;;;12.70;99.90;;;;;;5051504;28;20071;-75
2024/04/04 05:38:54;;;;;;;12.90;2.25;;;12.50;99.90;;;;;;5034320;28;20056;-77
2024/04/04 05:41:20;;;;;;;7.43;1.77;;;12.40;99.90;;;;;;5050504;28;20044;-75
2024/04/04 05:43:46;;;;;;;8.13;2.10;;;12.40;99.90;;;;;;5049387;28;20123;-75
2024/04/04 05:46:12;;;;;;;10.30;2.22;;;12.40;99.90;;;;;;5055442;28;20039;-74
2024/04/04 05:48:37;;;;;;;11.60;2.45;;;12.30;99.90;;;;;;5090327;28;20028;-77
2024/04/04 05:51:04;;;;;;;11.23;2.70;;;12.40;99.90;;;;;;5058634;28;20128;-75
2024/04/04 05:53:33;;;;;;;7.53;1.70;;;12.40;99.90;;;;;;5051796;28;20051;-73
2024/04/04 05:55:58;;;;;;;13.85;2.95;;;12.40;99.90;;;;;;5069847;28;20461;-75
2024/04/04 05:58:24;;;;;;;11.05;2.35;;;12.40;99.90;;;;;;5061982;28;20035;-76
2024/04/04 06:00:51;;;;;;;10.32;2.45;;;12.40;99.90;;;;;;5072982;28;20134;-74
2024/04/04 06:03:17;;;;;;;11.40;2.45;;;12.50;99.90;;;;;;5057349;28;20032;-76
2024/04/04 06:05:43;;;;;;;12.63;2.15;;;12.40;99.90;;;;;;5049094;28;20074;-73
2024/04/04 06:08:09;;;;;;;12.35;2.00;;;12.40;99.90;;;;;;5055209;28;20039;-74
2024/04/04 06:10:35;;;;;;;4.80;1.30;;;12.30;99.90;;;;;;5071420;28;20036;-74
2024/04/04 06:13:01;;;;;;;8.25;1.80;;;12.30;99.90;;;;;;5055890;28;20031;-75
2024/04/04 06:15:27;;;;;;;7.53;1.65;;;12.40;99.90;;;;;;5062639;28;20029;-75
2024/04/04 06:17:52;;;;;;;6.38;1.30;;;12.50;99.90;;;;;;5071899;28;20041;-75
2024/04/04 06:20:18;;;;;;;7.55;1.90;;;12.40;99.90;;;;;;5072944;28;20037;-75
2024/04/04 06:22:44;;;;;;;9.07;1.58;;;12.50;99.90;;;;;;5068181;28;20032;-77
2024/04/04 06:25:09;;;;;;;6.10;1.45;;;12.50;99.90;;;;;;5063535;28;20032;-75
2024/04/04 06:27:35;;;;;;;9.57;1.92;;;12.40;99.90;;;;;;5057576;28;20399;-76
2024/04/04 06:30:01;;;;;;;8.43;2.05;;;12.50;99.90;;;;;;5068328;28;20024;-75
2024/04/04 06:32:27;;;;;;;9.48;1.75;;;12.40;99.90;;;;;;5077526;28;20495;-74
2024/04/04 06:34:53;;;;;;;7.43;1.48;;;12.40;99.90;;;;;;5056868;28;20025;-76
2024/04/04 06:37:18;;;;;;;10.20;1.63;;;12.40;99.90;;;;;;5068042;28;20465;-77
2024/04/04 06:39:45;;;;;;;7.10;1.38;;;12.40;99.90;;;;;;5060091;28;20037;-74
2024/04/04 06:42:11;;;;;;;8.13;1.55;;;12.40;99.90;;;;;;5041844;28;20116;-75
2024/04/04 06:44:37;;;;;;;6.75;1.70;;;12.30;99.90;;;;;;5077021;28;20028;-77
2024/04/04 06:47:03;;;;;;;6.40;1.85;;;12.30;99.90;;;;;;5088925;28;20122;-76
2024/04/04 06:49:29;;;;;;;4.00;1.50;;;12.30;99.90;;;;;;5087329;28;20027;-76
2024/04/04 06:51:55;;;;;;;8.15;1.50;;;12.40;99.90;;;;;;5070489;28;20028;-76
2024/04/04 06:54:21;;;;;;;8.90;1.75;;;12.30;99.90;;;;;;5055048;28;20029;-75
2024/04/04 06:56:47;;;;;;;10.90;1.52;;;12.30;99.90;;;;;;5055510;28;20024;-75
2024/04/04 06:59:13;;;;;;;5.82;1.27;;;12.30;99.90;;;;;;5094599;28;20369;-75
2024/04/04 07:01:39;;;;;;;9.45;1.48;;;12.20;99.90;;;;;;5070087;28;20037;-75
2024/04/04 07:04:07;;;;;;;6.80;1.40;;;12.20;99.90;;;;;;5087192;28;20054;-77
2024/04/04 07:06:33;;;;;;;4.18;1.40;;;12.20;99.90;;;;;;5056985;28;20032;-75
2024/04/04 07:08:59;;;;;;;7.20;1.40;;;12.10;99.90;;;;;;5052570;28;20028;-76
2024/04/04 07:11:26;;;;;;;7.55;1.40;;;12.10;99.90;;;;;;5056971;28;20370;-73
2024/04/04 07:13:51;;;;;;;7.05;1.27;;;12.20;99.90;;;;;;5075492;28;20020;-74
2024/04/04 07:16:17;;;;;;;9.55;2.03;;;12.20;99.90;;;;;;5074125;28;20038;-76
2024/04/04 07:18:43;;;;;;;4.05;1.15;;;12.20;99.90;;;;;;5075968;28;20031;-74
2024/04/04 07:21:09;;;;;;;6.07;1.50;;;12.10;99.90;;;;;;5091508;28;20032;-76
2024/04/04 07:23:34;;;;;;;7.53;1.42;;;12.10;99.90;;;;;;5043220;28;20383;-76
2024/04/04 07:26:01;;;;;;;7.25;1.48;;;12.10;99.90;;;;;;5052186;28;20051;-76
2024/04/04 07:28:27;;;;;;;3.53;1.45;;;12.00;99.90;;;;;;5029450;28;20025;-76
2024/04/04 07:30:53;;;;;;;4.65;0.93;;;11.90;99.90;;;;;;5038387;28;20854;-74
2024/04/04 07:33:19;;;;;;;8.57;1.35;;;11.80;99.90;;;;;;5043842;28;20024;-73
2024/04/04 07:35:45;;;;;;;2.55;0.70;;;11.80;99.90;;;;;;5038265;28;20048;-74
2024/04/04 07:38:13;;;;;;;3.80;0.93;;;11.80;99.90;;;;;;5054669;28;20044;-76
2024/04/04 07:40:40;;;;;;;4.03;1.02;;;11.80;99.90;;;;;;5038117;28;20055;-75
2024/04/04 07:43:07;;;;;;;6.93;0.82;;;11.80;99.90;;;;;;5037870;28;20052;-76
2024/04/04 07:45:42;;;;;;;2.97;0.98;;;11.80;99.90;;;;;;5037893;28;20021;-75
2024/04/04 07:48:09;;;;;;;3.53;0.90;;;11.90;99.90;;;;;;5054992;28;20123;-77
2024/04/04 07:50:35;;;;;;;6.60;1.52;;;12.00;99.90;;;;;;5057856;28;20032;-76
2024/04/04 07:53:02;;;;;;;5.25;0.90;;;12.00;99.90;;;;;;5028571;28;20024;-76
2024/04/04 07:55:29;;;;;;;13.70;0.93;;;12.00;99.90;;;;;;5061500;28;20461;-74
2024/04/04 07:57:55;;;;;;;2.75;0.82;;;12.00;99.90;;;;;;5042481;28;20056;-78
2024/04/04 08:00:21;;;;;;;3.92;0.75;;;12.00;99.90;;;;;;5072491;28;20031;-77
2024/04/04 08:02:47;;;;;;;7.22;1.65;;;12.00;99.90;;;;;;5059235;28;20037;-76
2024/04/04 08:05:13;;;;;;;4.38;0.85;;;12.00;99.90;;;;;;5023110;28;20027;-75
2024/04/04 08:07:38;;;;;;;3.53;0.90;;;12.00;99.90;;;;;;5055214;28;20040;-75
2024/04/04 08:10:06;;;;;;;1.70;0.73;;;12.00;99.90;;;;;;5036686;28;20047;-75
2024/04/04 08:12:35;;;;;;;3.72;1.00;;;12.10;99.90;;;;;;5058182;28;20025;-76
2024/04/04 08:15:12;;;;;;;1.77;0.88;;;12.10;99.90;;;;;;5041480;28;20120;-78
2024/04/04 08:17:40;;;;;;;5.80;1.00;;;12.20;99.90;;;;;;5043572;28;20037;-78
2024/04/04 08:20:09;;;;;;;4.30;1.00;;;12.20;99.90;;;;;;5059726;28;20029;-77
2024/04/04 08:22:36;;;;;;;7.38;1.40;;;12.20;99.90;;;;;;5047350;28;20032;-77
2024/04/04 08:25:02;;;;;;;5.82;1.20;;;12.20;99.90;;;;;;5062017;28;20035;-77
2024/04/04 08:27:28;;;;;;;2.80;0.75;;;12.30;99.90;;;;;;5096707;28;20028;-77
2024/04/04 08:29:54;;;;;;;1.58;0.60;;;12.30;99.90;;;;;;5059202;28;20399;-78
2024/04/04 08:32:20;;;;;;;8.90;0.80;;;12.20;99.90;;;;;;5059336;28;20036;-76
2024/04/04 08:34:46;;;;;;;7.53;0.80;;;12.20;99.90;;;;;;5058817;28;20111;-76
2024/04/04 08:37:12;;;;;;;3.05;0.82;;;12.20;99.90;;;;;;5051134;28;20547;-77
2024/04/04 08:39:39;;;;;;;1.45;0.50;;;12.30;99.90;;;;;;5094355;28;20042;-75
2024/04/04 08:42:05;;;;;;;3.75;0.93;;;12.40;99.90;;;;;;5078954;28;20027;-76
2024/04/04 08:44:32;;;;;;;1.10;0.55;;;12.40;99.90;;;;;;5079131;28;20082;-76
2024/04/04 08:47:02;;;;;;;9.40;2.22;;;12.50;99.90;;;;;;5078868;28;20024;-75
2024/04/04 08:49:28;;;;;;;7.15;1.02;;;12.40;99.90;;;;;;5079023;28;20021;-79
2024/04/04 08:51:55;;;;;;;2.17;0.57;;;12.30;99.90;;;;;;5079218;28;20036;-77
2024/04/04 08:54:24;;;;;;;4.10;0.70;;;12.30;99.90;;;;;;5046425;28;20028;-77
2024/04/04 08:56:50;;;;;;;5.18;0.77;;;12.20;99.90;;;;;;5079598;28;20052;-77
2024/04/04 08:59:16;;;;;;;3.92;0.57;;;12.10;99.90;;;;;;5064467;28;20028;-77
2024/04/04 09:01:43;;;;;;;2.85;0.57;;;12.10;99.90;;;;;;5064470;28;20041;-75
2024/04/04 09:04:09;;;;;;;2.92;0.70;;;12.10;99.90;;;;;;5082304;28;20020;-73
2024/04/04 09:06:35;;;;;;;4.28;0.65;;;12.10;99.90;;;;;;5078389;28;20038;-77
2024/04/04 09:09:02;;;;;;;1.33;0.47;;;12.30;99.90;;;;;;5078530;28;20044;-78
2024/04/04 09:11:29;;;;;;;4.03;0.52;;;12.60;99.90;;;;;;5076867;28;20043;-78
2024/04/04 09:14:09;;;;;;;3.17;1.17;;;12.80;99.90;;;;;;5079407;28;20027;-78
2024/04/04 09:16:36;;;;;;;3.72;0.60;;;12.70;99.90;;;;;;5062593;28;20033;-77
2024/04/04 09:19:19;;;;;;;3.97;0.75;;;12.60;99.90;;;;;;5065366;28;20054;-78
2024/04/04 09:21:46;;;;;;;2.08;0.68;;;12.40;99.90;;;;;;5081566;28;20075;-80
2024/04/04 09:24:18;;;;;;;3.42;0.80;;;12.30;99.90;;;;;;5064359;28;20048;-78
2024/04/04 09:26:44;;;;;;;7.40;1.42;;;12.20;99.90;;;;;;5078840;28;20020;-79
2024/04/04 09:29:11;;;;;;;9.50;1.00;;;12.20;99.90;;;;;;5096477;28;20072;-76
2024/04/04 09:31:39;;;;;;;3.97;0.70;;;12.20;99.90;;;;;;5077800;28;20028;-77
2024/04/04 09:34:05;;;;;;;9.00;1.92;;;12.20;99.90;;;;;;5104093;28;20433;-75
2024/04/04 09:36:33;;;;;;;2.95;0.80;;;12.20;99.90;;;;;;5096493;28;20028;-80
2024/04/04 09:39:00;;;;;;;6.53;1.05;;;12.30;99.90;;;;;;5078384;28;20032;-78
2024/04/04 09:41:30;;;;;;;3.35;0.60;;;12.40;99.90;;;;;;5096131;28;20027;-78
2024/04/04 09:43:57;;;;;;;2.70;0.80;;;12.70;99.90;;;;;;5054857;28;20036;-79
2024/04/04 09:46:25;;;;;;;2.72;0.70;;;12.90;99.90;;;;;;5079076;28;20377;-78
2024/04/04 09:48:52;;;;;;;6.60;1.08;;;13.10;99.90;;;;;;5078989;28;20466;-80
2024/04/04 09:51:19;;;;;;;3.45;0.80;;;13.40;99.90;;;;;;5062098;28;20028;-76
2024/04/04 09:53:47;;;;;;;2.97;0.88;;;13.90;99.90;;;;;;5079942;28;20024;-78
2024/04/04 09:56:15;;;;;;;6.40;0.80;;;14.00;99.90;;;;;;5078496;28;20027;-79
2024/04/04 09:58:42;;;;;;;7.32;1.45;;;14.40;99.90;;;;;;5061649;28;20464;-78
2024/04/04 10:01:22;;;;;;;7.90;1.00;;;14.60;99.90;;;;;;5077867;28;20032;-77
2024/04/04 10:03:52;;;;;;;4.22;1.23;;;14.60;99.90;;;;;;5082468;28;20028;-81
2024/04/04 10:06:33;;;;;;;6.50;1.40;;;14.40;99.90;;;;;;5102679;28;20024;-79
2024/04/04 10:08:59;;;;;;;7.20;1.25;;;14.30;99.90;;;;;;5104160;28;20021;-81
2024/04/04 10:11:33;;;;;;;5.97;1.13;;;15.00;99.90;;;;;;5066621;28;20047;-78
2024/04/04 10:14:02;;;;;;;3.17;1.02;;;16.10;99.90;;;;;;5078533;28;20024;-79
2024/04/04 10:16:35;;;;;;;5.47;0.98;;;16.70;99.90;;;;;;5095002;28;20044;-79
2024/04/04 10:19:13;;;;;;;6.13;0.93;;;16.70;99.90;;;;;;5084226;28;20028;-81
2024/04/04 10:21:39;;;;;;;5.28;1.40;;;15.90;99.90;;;;;;5065058;28;20036;-79
2024/04/04 10:24:06;;;;;;;6.18;1.35;;;15.20;99.90;;;;;;5095816;28;20050;-80
2024/04/04 10:26:32;;;;;;;5.80;1.42;;;15.20;99.90;;;;;;5076997;28;20027;-77
2024/04/04 10:28:58;;;;;;;6.93;2.25;;;15.30;99.90;;;;;;5079531;28;20035;-78
2024/04/04 10:31:25;;;;;;;9.98;1.90;;;15.40;99.90;;;;;;5062879;28;20032;-79
2024/04/04 10:34:01;;;;;;;13.63;1.75;;;15.30;99.90;;;;;;5077541;28;20028;-79
2024/04/04 10:36:37;;;;;;;10.00;1.75;;;15.00;99.90;;;;;;5077096;28;20016;-80
2024/04/04 10:39:09;;;;;;;14.65;1.90;;;14.80;99.90;;;;;;5095109;28;20024;-78
2024/04/04 10:41:36;;;;;;;10.00;2.13;;;14.60;99.90;;;;;;5060790;28;20036;-77
2024/04/04 10:44:14;;;;;;;8.48;2.05;;;14.60;99.90;;;;;;5074028;28;20047;-81
2024/04/04 10:46:42;;;;;;;6.03;1.92;;;14.40;99.90;;;;;;5094017;28;20537;-79
2024/04/04 10:49:08;;;;;;;12.63;2.53;;;14.30;99.90;;;;;;5085729;28;20021;-78
2024/04/04 10:51:36;;;;;;;17.35;2.15;;;14.60;99.90;;;;;;5079988;28;20106;-79
2024/04/04 10:54:03;;;;;;;8.98;2.30;;;14.90;99.90;;;;;;5064238;28;20020;-77
2024/04/04 10:56:30;;;;;;;17.98;2.53;;;15.10;99.90;;;;;;5065154;28;20035;-78
2024/04/04 10:58:56;;;;;;;14.15;2.35;;;15.30;99.90;;;;;;5081285;28;20032;-78
2024/04/04 11:01:22;;;;;;;9.98;2.20;;;15.80;99.90;;;;;;5068758;28;20090;-78
2024/04/04 11:03:51;;;;;;;14.02;2.78;;;17.80;99.90;;;;;;5061251;28;20032;-79
2024/04/04 11:06:17;;;;;;;8.15;2.17;;;18.90;99.90;;;;;;5091347;28;20028;-79
2024/04/04 11:08:44;;;;;;;15.68;2.63;;;19.20;99.90;;;;;;5041251;28;20024;-77
2024/04/04 11:11:10;;;;;;;16.52;3.20;;;19.80;99.90;;;;;;5099162;28;20028;-78
2024/04/04 11:13:36;;;;;;;14.25;2.65;;;21.00;99.90;;;;;;5099225;28;20046;-79
2024/04/04 11:16:02;;;;;;;14.15;2.28;;;21.60;99.90;;;;;;5059223;28;20056;-79
2024/04/04 11:18:28;;;;;;;10.20;2.40;;;20.50;99.90;;;;;;5066015;28;20036;-78
2024/04/04 11:20:54;;;;;;;10.15;1.90;;;20.70;99.90;;;;;;5074752;28;20052;-77
2024/04/04 11:23:20;;;;;;;13.35;2.75;;;21.10;99.90;;;;;;5036153;28;20052;-77
2024/04/04 11:25:46;;;;;;;7.55;2.38;;;20.80;99.90;;;;;;5082951;28;20032;-78
2024/04/04 11:28:12;;;;;;;11.27;2.97;;;20.60;99.90;;;;;;5102009;28;20118;-77
2024/04/04 11:30:38;;;;;;;13.10;2.63;;;20.00;99.90;;;;;;5086845;28;20036;-77
2024/04/04 11:33:04;;;;;;;12.10;2.80;;;18.90;99.90;;;;;;5068894;28;20035;-76
2024/04/04 11:35:30;;;;;;;17.20;2.78;;;19.70;99.90;;;;;;5037572;28;20430;-77
2024/04/04 11:37:55;;;;;;;12.85;2.97;;;19.90;99.90;;;;;;5062533;28;20063;-77
2024/04/04 11:40:21;;;;;;;12.43;2.95;;;19.40;99.90;;;;;;5061493;28;20554;-77
2024/04/04 11:42:47;;;;;;;13.93;2.55;;;19.20;99.90;;;;;;5053966;28;20041;-75
2024/04/04 11:45:14;;;;;;;18.52;3.05;;;19.30;99.90;;;;;;5066050;28;20025;-76
2024/04/04 11:47:42;;;;;;;14.05;3.03;;;20.30;99.90;;;;;;5073529;28;20119;-77
2024/04/04 11:50:07;;;;;;;16.25;2.97;;;19.90;99.90;;;;;;5081047;28;20035;-76
2024/04/04 11:52:33;;;;;;;17.98;3.05;;;19.50;99.90;;;;;;5085682;28;20028;-78
2024/04/04 11:54:59;;;;;;;17.23;3.88;;;19.00;99.90;;;;;;5088087;28;20090;-79
2024/04/04 11:57:24;;;;;;;23.42;3.58;;;17.90;99.90;;;;;;5069889;28;20036;-77
2024/04/04 11:59:50;;;;;;;15.88;3.13;;;17.20;99.90;;;;;;5097883;28;20085;-77
2024/04/04 12:02:15;;;;;;;21.42;3.42;;;16.70;99.90;;;;;;5062479;28;20039;-77
2024/04/04 12:04:41;;;;;;;27.35;3.60;;;16.30;99.90;;;;;;5068002;28;20470;-76
2024/04/04 12:07:07;;;;;;;18.38;3.30;;;16.10;99.90;;;;;;5082698;28;20040;-75
2024/04/04 12:09:33;;;;;;;24.00;3.90;;;16.00;99.90;;;;;;5065309;28;20028;-75
2024/04/04 12:11:59;;;;;;;21.83;3.53;;;15.90;99.90;;;;;;5048453;28;20024;-77
2024/04/04 12:14:24;;;;;;;24.05;4.13;;;15.60;99.90;;;;;;5060242;28;20449;-76
2024/04/04 12:16:52;;;;;;;12.02;2.58;;;16.10;99.90;;;;;;5076747;28;20024;-76
2024/04/04 12:19:29;;;;;;;24.85;4.05;;;16.10;99.90;;;;;;5067199;28;20591;-75
2024/04/04 12:21:55;;;;;;;18.80;3.67;;;17.40;99.90;;;;;;5079261;28;20409;-76
2024/04/04 12:24:21;;;;;;;28.67;4.15;;;19.80;99.90;;;;;;5091282;28;20050;-76
2024/04/04 12:26:53;;;;;;;21.35;3.65;;;21.50;99.90;;;;;;5054874;28;20504;-75
2024/04/04 12:29:19;;;;;;;21.73;4.00;;;21.80;99.90;;;;;;5073916;28;20035;-76
2024/04/04 12:31:46;;;;;;;31.17;5.28;;;21.90;99.90;;;;;;5096859;28;20110;-78
2024/04/04 12:34:11;;;;;;;17.25;3.92;;;22.60;99.90;;;;;;5078077;28;20024;-75
2024/04/04 12:36:37;;;;;;;24.48;4.85;;;22.00;99.90;;;;;;5077974;28;20500;-76
2024/04/04 12:39:08;;;;;;;26.45;4.88;;;20.70;99.90;;;;;;5096388;28;20089;-77
2024/04/04 12:41:34;;;;;;;23.17;4.03;;;22.10;99.90;;;;;;5046732;28;20059;-76